sensor_id;sensor_type;location;lat;lon;timestamp;pressure;altitude;pressure_sealevel;temperature;humidity
21902;BME280;11115;46.038;14.612;2022-12-07T00:01:30;98341.19;;;4.42;100.00
21902;BME280;11115;46.038;14.612;2022-12-07T00:04:00;98338.75;;;4.45;100.00
21902;BME280;11115;46.038;14.612;2022-12-07T00:06:33;98334.63;;;4.48;100.00
21902;BME280;11115;46.038;14.612;2022-12-07T00:09:02;98328.03;;;4.39;100.00
21902;BME280;11115;46.038;14.612;2022-12-07T00:11:30;98329.41;;;4.26;100.00
21902;BME280;11115;46.038;14.612;2022-12-07T00:14:01;98330.50;;;4.35;100.00
21902;BME280;11115;46.038;14.612;2022-12-07T00:16:32;98322.03;;;4.47;100.00
21902;BME280;11115;46.038;14.612;2022-12-07T00:19:00;98326.69;;;4.46;100.00
21902;BME280;11115;46.038;14.612;2022-12-07T00:21:31;98328.88;;;4.34;100.00
21902;BME280;11115;46.038;14.612;2022-12-07T00:24:00;98323.69;;;4.53;100.00
21902;BME280;11115;46.038;14.612;2022-12-07T00:26:31;98322.03;;;4.62;100.00
21902;BME280;11115;46.038;14.612;2022-12-07T00:29:06;98314.38;;;4.49;100.00
21902;BME280;11115;46.038;14.612;2022-12-07T00:31:36;98316.53;;;4.57;100.00
21902;BME280;11115;46.038;14.612;2022-12-07T00:34:06;98320.09;;;4.57;100.00
21902;BME280;11115;46.038;14.612;2022-12-07T00:36:34;98312.44;;;4.54;100.00
21902;BME280;11115;46.038;14.612;2022-12-07T00:39:02;98315.16;;;4.60;100.00
21902;BME280;11115;46.038;14.612;2022-12-07T00:41:30;98308.31;;;4.57;100.00
21902;BME280;11115;46.038;14.612;2022-12-07T00:43:58;98299.03;;;4.53;100.00
21902;BME280;11115;46.038;14.612;2022-12-07T00:46:26;98305.59;;;4.57;100.00
21902;BME280;11115;46.038;14.612;2022-12-07T00:48:54;98303.94;;;4.61;100.00
21902;BME280;11115;46.038;14.612;2022-12-07T00:51:24;98304.78;;;4.67;100.00
21902;BME280;11115;46.038;14.612;2022-12-07T00:53:52;98302.03;;;4.67;100.00
21902;BME280;11115;46.038;14.612;2022-12-07T00:56:26;98302.28;;;4.60;100.00
21902;BME280;11115;46.038;14.612;2022-12-07T00:59:00;98302.84;;;4.57;100.00
21902;BME280;11115;46.038;14.612;2022-12-07T01:01:31;98297.38;;;4.72;100.00
21902;BME280;11115;46.038;14.612;2022-12-07T01:03:59;98290.25;;;4.51;100.00
21902;BME280;11115;46.038;14.612;2022-12-07T01:06:28;98311.34;;;4.76;100.00
21902;BME280;11115;46.038;14.612;2022-12-07T01:08:56;98304.22;;;4.70;100.00
21902;BME280;11115;46.038;14.612;2022-12-07T01:11:28;98311.88;;;4.57;100.00
21902;BME280;11115;46.038;14.612;2022-12-07T01:13:57;98308.59;;;4.55;100.00
21902;BME280;11115;46.038;14.612;2022-12-07T01:16:28;98302.28;;;4.60;100.00
21902;BME280;11115;46.038;14.612;2022-12-07T01:18:57;98294.34;;;4.58;100.00
21902;BME280;11115;46.038;14.612;2022-12-07T01:21:28;98305.88;;;4.66;100.00
21902;BME280;11115;46.038;14.612;2022-12-07T01:23:59;98305.31;;;4.74;100.00
21902;BME280;11115;46.038;14.612;2022-12-07T01:26:27;98306.41;;;4.68;100.00
21902;BME280;11115;46.038;14.612;2022-12-07T01:28:55;98285.88;;;4.55;100.00
21902;BME280;11115;46.038;14.612;2022-12-07T01:31:26;98297.09;;;4.69;100.00
21902;BME280;11115;46.038;14.612;2022-12-07T01:33:57;98298.44;;;4.76;100.00
21902;BME280;11115;46.038;14.612;2022-12-07T01:36:30;98290.78;;;4.58;100.00
21902;BME280;11115;46.038;14.612;2022-12-07T01:39:01;98281.19;;;4.71;100.00
21902;BME280;11115;46.038;14.612;2022-12-07T01:41:32;98273.00;;;4.66;100.00
21902;BME280;11115;46.038;14.612;2022-12-07T01:44:08;98283.94;;;4.61;100.00
21902;BME280;11115;46.038;14.612;2022-12-07T01:46:36;98290.81;;;4.48;100.00
21902;BME280;11115;46.038;14.612;2022-12-07T01:49:06;98285.06;;;4.65;100.00
21902;BME280;11115;46.038;14.612;2022-12-07T01:51:35;98286.13;;;4.58;100.00
21902;BME280;11115;46.038;14.612;2022-12-07T01:54:05;98291.34;;;4.65;100.00
21902;BME280;11115;46.038;14.612;2022-12-07T01:56:33;98272.97;;;4.61;100.00
21902;BME280;11115;46.038;14.612;2022-12-07T01:59:01;98296.84;;;4.65;100.00
21902;BME280;11115;46.038;14.612;2022-12-07T02:01:29;98288.59;;;4.70;100.00
21902;BME280;11115;46.038;14.612;2022-12-07T02:03:58;98276.81;;;4.60;100.00
21902;BME280;11115;46.038;14.612;2022-12-07T02:06:26;98292.97;;;4.76;100.00
21902;BME280;11115;46.038;14.612;2022-12-07T02:08:53;98291.31;;;4.75;100.00
21902;BME280;11115;46.038;14.612;2022-12-07T02:11:21;98283.38;;;4.74;100.00
21902;BME280;11115;46.038;14.612;2022-12-07T02:13:49;98284.78;;;4.56;100.00
21902;BME280;11115;46.038;14.612;2022-12-07T02:21:52;98292.19;;;4.45;100.00
21902;BME280;11115;46.038;14.612;2022-12-07T02:27:56;98279.56;;;4.60;100.00
21902;BME280;11115;46.038;14.612;2022-12-07T02:30:31;98269.13;;;4.62;100.00
21902;BME280;11115;46.038;14.612;2022-12-07T02:33:05;98274.06;;;4.60;100.00
21902;BME280;11115;46.038;14.612;2022-12-07T02:35:46;98267.25;;;4.52;100.00
21902;BME280;11115;46.038;14.612;2022-12-07T02:38:26;98256.03;;;4.33;100.00
21902;BME280;11115;46.038;14.612;2022-12-07T02:41:12;98264.78;;;4.55;100.00
21902;BME280;11115;46.038;14.612;2022-12-07T02:43:46;98268.91;;;4.63;100.00
21902;BME280;11115;46.038;14.612;2022-12-07T02:46:18;98272.44;;;4.64;100.00
21902;BME280;11115;46.038;14.612;2022-12-07T02:48:49;98260.41;;;4.65;100.00
21902;BME280;11115;46.038;14.612;2022-12-07T02:51:18;98264.75;;;4.61;100.00
21902;BME280;11115;46.038;14.612;2022-12-07T02:53:46;98259.00;;;4.62;100.00
21902;BME280;11115;46.038;14.612;2022-12-07T03:07:51;98252.72;;;4.56;100.00
21902;BME280;11115;46.038;14.612;2022-12-07T03:10:30;98254.63;;;4.56;100.00
21902;BME280;11115;46.038;14.612;2022-12-07T03:13:09;98239.56;;;4.43;100.00
21902;BME280;11115;46.038;14.612;2022-12-07T03:18:33;98248.88;;;4.52;100.00
21902;BME280;11115;46.038;14.612;2022-12-07T03:21:08;98252.72;;;4.51;100.00
21902;BME280;11115;46.038;14.612;2022-12-07T03:23:39;98244.75;;;4.60;100.00
21902;BME280;11115;46.038;14.612;2022-12-07T03:26:09;98241.75;;;4.56;100.00
21902;BME280;11115;46.038;14.612;2022-12-07T03:28:43;98239.00;;;4.56;100.00
21902;BME280;11115;46.038;14.612;2022-12-07T03:31:24;98245.06;;;4.53;100.00
21902;BME280;11115;46.038;14.612;2022-12-07T03:34:30;98218.75;;;4.52;100.00
21902;BME280;11115;46.038;14.612;2022-12-07T03:37:02;98231.91;;;4.40;100.00
21902;BME280;11115;46.038;14.612;2022-12-07T03:39:38;98228.06;;;4.51;100.00
21902;BME280;11115;46.038;14.612;2022-12-07T03:42:08;98223.69;;;4.66;100.00
21902;BME280;11115;46.038;14.612;2022-12-07T03:44:38;98223.16;;;4.48;100.00
21902;BME280;11115;46.038;14.612;2022-12-07T03:47:20;98227.53;;;4.49;100.00
21902;BME280;11115;46.038;14.612;2022-12-07T03:50:06;98228.06;;;4.56;100.00
21902;BME280;11115;46.038;14.612;2022-12-07T03:52:48;98226.69;;;4.64;100.00
21902;BME280;11115;46.038;14.612;2022-12-07T03:55:31;98221.78;;;4.36;100.00
21902;BME280;11115;46.038;14.612;2022-12-07T03:58:05;98230.00;;;4.31;100.00
21902;BME280;11115;46.038;14.612;2022-12-07T04:00:33;98188.94;;;4.20;100.00
21902;BME280;11115;46.038;14.612;2022-12-07T04:03:01;98224.22;;;4.52;100.00
21902;BME280;11115;46.038;14.612;2022-12-07T04:05:29;98218.19;;;4.55;100.00
21902;BME280;11115;46.038;14.612;2022-12-07T04:07:57;98217.41;;;4.45;100.00
21902;BME280;11115;46.038;14.612;2022-12-07T04:10:25;98221.50;;;4.37;100.00
21902;BME280;11115;46.038;14.612;2022-12-07T04:12:53;98224.53;;;4.46;100.00
21902;BME280;11115;46.038;14.612;2022-12-07T04:15:21;98226.13;;;4.57;100.00
21902;BME280;11115;46.038;14.612;2022-12-07T04:17:49;98220.13;;;4.40;100.00
21902;BME280;11115;46.038;14.612;2022-12-07T04:20:17;98222.88;;;4.30;100.00
21902;BME280;11115;46.038;14.612;2022-12-07T04:22:44;98223.97;;;4.39;100.00
21902;BME280;11115;46.038;14.612;2022-12-07T04:25:12;98230.78;;;4.62;100.00
21902;BME280;11115;46.038;14.612;2022-12-07T04:27:40;98227.78;;;4.53;100.00
21902;BME280;11115;46.038;14.612;2022-12-07T04:30:08;98228.06;;;4.67;100.00
21902;BME280;11115;46.038;14.612;2022-12-07T04:32:36;98211.66;;;4.46;100.00
21902;BME280;11115;46.038;14.612;2022-12-07T04:35:04;98213.03;;;4.44;100.00
21902;BME280;11115;46.038;14.612;2022-12-07T04:37:32;98210.28;;;4.44;100.00
21902;BME280;11115;46.038;14.612;2022-12-07T04:40:00;98208.91;;;4.41;100.00
21902;BME280;11115;46.038;14.612;2022-12-07T04:42:28;98208.91;;;4.31;100.00
21902;BME280;11115;46.038;14.612;2022-12-07T04:44:56;98208.38;;;4.44;100.00
21902;BME280;11115;46.038;14.612;2022-12-07T04:47:23;98215.75;;;4.44;100.00
21902;BME280;11115;46.038;14.612;2022-12-07T04:49:51;98210.56;;;4.37;100.00
21902;BME280;11115;46.038;14.612;2022-12-07T04:52:19;98210.28;;;4.44;100.00
21902;BME280;11115;46.038;14.612;2022-12-07T04:54:47;98204.78;;;4.49;100.00
21902;BME280;11115;46.038;14.612;2022-12-07T04:57:14;98202.31;;;4.57;100.00
21902;BME280;11115;46.038;14.612;2022-12-07T04:59:42;98191.63;;;4.41;100.00
21902;BME280;11115;46.038;14.612;2022-12-07T05:02:11;98192.75;;;4.40;100.00
21902;BME280;11115;46.038;14.612;2022-12-07T05:04:39;98187.00;;;4.36;100.00
21902;BME280;11115;46.038;14.612;2022-12-07T05:07:07;98188.38;;;4.44;100.00
21902;BME280;11115;46.038;14.612;2022-12-07T05:09:34;98183.97;;;4.53;100.00
21902;BME280;11115;46.038;14.612;2022-12-07T05:12:02;98197.69;;;4.48;100.00
21902;BME280;11115;46.038;14.612;2022-12-07T05:14:30;98197.91;;;4.56;100.00
21902;BME280;11115;46.038;14.612;2022-12-07T05:16:58;98161.81;;;4.34;100.00
21902;BME280;11115;46.038;14.612;2022-12-07T05:19:25;98194.34;;;4.61;100.00
21902;BME280;11115;46.038;14.612;2022-12-07T05:21:53;98200.41;;;4.63;100.00
21902;BME280;11115;46.038;14.612;2022-12-07T05:24:21;98208.63;;;4.63;100.00
21902;BME280;11115;46.038;14.612;2022-12-07T05:26:49;98200.13;;;4.54;100.00
21902;BME280;11115;46.038;14.612;2022-12-07T05:29:17;98200.66;;;4.62;100.00
21902;BME280;11115;46.038;14.612;2022-12-07T05:31:45;98204.19;;;4.62;100.00
21902;BME280;11115;46.038;14.612;2022-12-07T05:34:13;98200.41;;;4.48;100.00
21902;BME280;11115;46.038;14.612;2022-12-07T05:36:40;98201.50;;;4.42;100.00
21902;BME280;11115;46.038;14.612;2022-12-07T05:39:08;98206.69;;;4.43;100.00
21902;BME280;11115;46.038;14.612;2022-12-07T05:41:36;98205.88;;;4.43;100.00
21902;BME280;11115;46.038;14.612;2022-12-07T05:44:21;98203.41;;;4.51;100.00
21902;BME280;11115;46.038;14.612;2022-12-07T05:46:49;98203.97;;;4.53;100.00
21902;BME280;11115;46.038;14.612;2022-12-07T05:49:17;98203.69;;;4.65;100.00
21902;BME280;11115;46.038;14.612;2022-12-07T05:51:45;98209.97;;;4.55;100.00
21902;BME280;11115;46.038;14.612;2022-12-07T05:54:12;98212.19;;;4.43;100.00
21902;BME280;11115;46.038;14.612;2022-12-07T05:56:40;98219.59;;;4.38;100.00
21902;BME280;11115;46.038;14.612;2022-12-07T05:59:09;98223.41;;;4.42;100.00
21902;BME280;11115;46.038;14.612;2022-12-07T06:01:59;98223.97;;;4.44;100.00
21902;BME280;11115;46.038;14.612;2022-12-07T06:04:33;98220.97;;;4.45;100.00
21902;BME280;11115;46.038;14.612;2022-12-07T06:07:01;98219.03;;;4.41;100.00
21902;BME280;11115;46.038;14.612;2022-12-07T06:09:29;98225.59;;;4.40;100.00
21902;BME280;11115;46.038;14.612;2022-12-07T06:11:58;98193.59;;;4.25;100.00
21902;BME280;11115;46.038;14.612;2022-12-07T06:14:44;98233.00;;;4.49;100.00
21902;BME280;11115;46.038;14.612;2022-12-07T06:17:12;98237.13;;;4.47;100.00
21902;BME280;11115;46.038;14.612;2022-12-07T06:19:40;98231.63;;;4.57;100.00
21902;BME280;11115;46.038;14.612;2022-12-07T06:22:09;98231.09;;;4.50;100.00
21902;BME280;11115;46.038;14.612;2022-12-07T06:24:38;98236.00;;;4.58;100.00
21902;BME280;11115;46.038;14.612;2022-12-07T06:27:06;98233.28;;;4.43;100.00
21902;BME280;11115;46.038;14.612;2022-12-07T06:29:34;98234.66;;;4.40;100.00
21902;BME280;11115;46.038;14.612;2022-12-07T06:32:02;98241.50;;;4.48;100.00
21902;BME280;11115;46.038;14.612;2022-12-07T06:34:31;98230.00;;;4.46;100.00
21902;BME280;11115;46.038;14.612;2022-12-07T06:36:59;98242.56;;;4.57;100.00
21902;BME280;11115;46.038;14.612;2022-12-07T06:39:28;98239.00;;;4.62;100.00
21902;BME280;11115;46.038;14.612;2022-12-07T06:41:57;98245.31;;;4.57;100.00
21902;BME280;11115;46.038;14.612;2022-12-07T06:44:25;98243.94;;;4.54;100.00
21902;BME280;11115;46.038;14.612;2022-12-07T06:46:53;98237.13;;;4.47;100.00
21902;BME280;11115;46.038;14.612;2022-12-07T06:49:41;98234.38;;;4.47;100.00
21902;BME280;11115;46.038;14.612;2022-12-07T06:52:09;98234.66;;;4.50;100.00
21902;BME280;11115;46.038;14.612;2022-12-07T06:54:36;98236.31;;;4.46;100.00
21902;BME280;11115;46.038;14.612;2022-12-07T06:57:04;98234.09;;;4.38;100.00
21902;BME280;11115;46.038;14.612;2022-12-07T06:59:32;98232.75;;;4.46;100.00
21902;BME280;11115;46.038;14.612;2022-12-07T07:01:59;98243.69;;;4.51;100.00
21902;BME280;11115;46.038;14.612;2022-12-07T07:04:27;98246.41;;;4.61;100.00
21902;BME280;11115;46.038;14.612;2022-12-07T07:06:55;98235.47;;;4.51;100.00
21902;BME280;11115;46.038;14.612;2022-12-07T07:09:25;98243.16;;;4.49;100.00
21902;BME280;11115;46.038;14.612;2022-12-07T07:11:54;98237.94;;;4.47;100.00
21902;BME280;11115;46.038;14.612;2022-12-07T07:14:22;98240.66;;;4.42;100.00
21902;BME280;11115;46.038;14.612;2022-12-07T07:16:49;98245.03;;;4.43;100.00
21902;BME280;11115;46.038;14.612;2022-12-07T07:19:17;98246.44;;;4.51;100.00
21902;BME280;11115;46.038;14.612;2022-12-07T07:21:45;98244.75;;;4.60;100.00
21902;BME280;11115;46.038;14.612;2022-12-07T07:24:13;98246.97;;;4.58;100.00
21902;BME280;11115;46.038;14.612;2022-12-07T07:26:40;98244.75;;;4.60;100.00
21902;BME280;11115;46.038;14.612;2022-12-07T07:29:08;98241.47;;;4.58;100.00
21902;BME280;11115;46.038;14.612;2022-12-07T07:31:36;98243.94;;;4.60;100.00
21902;BME280;11115;46.038;14.612;2022-12-07T07:34:04;98254.63;;;4.56;100.00
21902;BME280;11115;46.038;14.612;2022-12-07T07:36:32;98251.06;;;4.55;100.00
21902;BME280;11115;46.038;14.612;2022-12-07T07:38:59;98249.16;;;4.51;100.00
21902;BME280;11115;46.038;14.612;2022-12-07T07:41:27;98247.78;;;4.38;100.00
21902;BME280;11115;46.038;14.612;2022-12-07T07:43:55;98241.22;;;4.39;100.00
21902;BME280;11115;46.038;14.612;2022-12-07T07:46:23;98248.06;;;4.47;100.00
21902;BME280;11115;46.038;14.612;2022-12-07T07:48:50;98258.47;;;4.50;100.00
21902;BME280;11115;46.038;14.612;2022-12-07T07:51:18;98257.69;;;4.44;100.00
21902;BME280;11115;46.038;14.612;2022-12-07T07:53:46;98263.41;;;4.48;100.00
21902;BME280;11115;46.038;14.612;2022-12-07T07:56:13;98259.03;;;4.47;100.00
21902;BME280;11115;46.038;14.612;2022-12-07T07:58:41;98263.41;;;4.33;100.00
21902;BME280;11115;46.038;14.612;2022-12-07T08:01:09;98251.63;;;4.37;100.00
21902;BME280;11115;46.038;14.612;2022-12-07T08:03:37;98259.84;;;4.32;100.00
21902;BME280;11115;46.038;14.612;2022-12-07T08:06:05;98265.63;;;4.25;100.00
21902;BME280;11115;46.038;14.612;2022-12-07T08:08:33;98261.75;;;4.16;100.00
21902;BME280;11115;46.038;14.612;2022-12-07T08:11:05;98274.66;;;4.26;100.00
21902;BME280;11115;46.038;14.612;2022-12-07T08:13:32;98274.38;;;4.28;100.00
21902;BME280;11115;46.038;14.612;2022-12-07T08:16:05;98266.44;;;4.31;100.00
21902;BME280;11115;46.038;14.612;2022-12-07T08:18:39;98266.72;;;4.24;100.00
21902;BME280;11115;46.038;14.612;2022-12-07T08:21:11;98265.34;;;4.27;100.00
21902;BME280;11115;46.038;14.612;2022-12-07T08:23:39;98248.06;;;4.21;100.00
21902;BME280;11115;46.038;14.612;2022-12-07T08:26:10;98271.91;;;4.26;100.00
21902;BME280;11115;46.038;14.612;2022-12-07T08:28:38;98284.78;;;4.25;100.00
21902;BME280;11115;46.038;14.612;2022-12-07T08:31:10;98284.50;;;4.27;100.00
21902;BME280;11115;46.038;14.612;2022-12-07T08:33:39;98285.31;;;4.38;100.00
21902;BME280;11115;46.038;14.612;2022-12-07T08:36:09;98284.25;;;4.44;100.00
21902;BME280;11115;46.038;14.612;2022-12-07T08:38:38;98280.13;;;4.36;100.00
21902;BME280;11115;46.038;14.612;2022-12-07T08:41:17;98268.34;;;4.31;100.00
21902;BME280;11115;46.038;14.612;2022-12-07T08:43:45;98286.13;;;4.43;100.00
21902;BME280;11115;46.038;14.612;2022-12-07T08:46:20;98288.34;;;4.56;100.00
21902;BME280;11115;46.038;14.612;2022-12-07T08:48:58;98288.88;;;4.53;100.00
21902;BME280;11115;46.038;14.612;2022-12-07T08:51:29;98295.47;;;4.52;100.00
21902;BME280;11115;46.038;14.612;2022-12-07T08:53:58;98298.47;;;4.46;100.00
21902;BME280;11115;46.038;14.612;2022-12-07T08:56:27;98302.03;;;4.36;100.00
21902;BME280;11115;46.038;14.612;2022-12-07T08:58:57;98292.97;;;4.41;100.00
21902;BME280;11115;46.038;14.612;2022-12-07T09:01:25;98300.13;;;4.52;100.00
21902;BME280;11115;46.038;14.612;2022-12-07T09:03:53;98301.22;;;4.56;100.00
21902;BME280;11115;46.038;14.612;2022-12-07T09:06:21;98298.19;;;4.52;100.00
21902;BME280;11115;46.038;14.612;2022-12-07T09:08:52;98289.72;;;4.44;100.00
21902;BME280;11115;46.038;14.612;2022-12-07T09:11:21;98305.56;;;4.62;100.00
21902;BME280;11115;46.038;14.612;2022-12-07T09:13:54;98305.03;;;4.55;100.00
21902;BME280;11115;46.038;14.612;2022-12-07T09:16:22;98299.03;;;4.53;100.00
21902;BME280;11115;46.038;14.612;2022-12-07T09:18:50;98305.06;;;4.65;100.00
21902;BME280;11115;46.038;14.612;2022-12-07T09:21:18;98299.81;;;4.43;100.00
21902;BME280;11115;46.038;14.612;2022-12-07T09:23:46;98303.41;;;4.69;100.00
21902;BME280;11115;46.038;14.612;2022-12-07T09:26:14;98305.88;;;4.71;100.00
21902;BME280;11115;46.038;14.612;2022-12-07T09:28:41;98310.25;;;4.56;100.00
21902;BME280;11115;46.038;14.612;2022-12-07T09:31:09;98299.00;;;4.78;100.00
21902;BME280;11115;46.038;14.612;2022-12-07T09:33:57;98302.56;;;4.89;100.00
21902;BME280;11115;46.038;14.612;2022-12-07T09:36:27;98292.38;;;5.00;100.00
21902;BME280;11115;46.038;14.612;2022-12-07T09:38:55;98288.84;;;5.04;100.00
21902;BME280;11115;46.038;14.612;2022-12-07T09:41:24;98297.56;;;5.11;100.00
21902;BME280;11115;46.038;14.612;2022-12-07T09:44:00;98294.28;;;5.09;100.00
21902;BME280;11115;46.038;14.612;2022-12-07T09:46:35;98290.16;;;5.12;100.00
21902;BME280;11115;46.038;14.612;2022-12-07T09:49:04;98296.72;;;5.16;100.00
21902;BME280;11115;46.038;14.612;2022-12-07T09:51:32;98291.81;;;5.13;100.00
21902;BME280;11115;46.038;14.612;2022-12-07T09:54:01;98287.22;;;4.88;100.00
21902;BME280;11115;46.038;14.612;2022-12-07T09:56:30;98280.94;;;4.82;100.00
21902;BME280;11115;46.038;14.612;2022-12-07T09:59:00;98284.72;;;4.92;100.00
21902;BME280;11115;46.038;14.612;2022-12-07T10:01:31;98272.13;;;4.80;100.00
21902;BME280;11115;46.038;14.612;2022-12-07T10:06:39;98279.00;;;4.83;100.00
21902;BME280;11115;46.038;14.612;2022-12-07T10:09:15;98276.78;;;4.90;100.00
21902;BME280;11115;46.038;14.612;2022-12-07T10:14:31;98272.38;;;4.99;100.00
21902;BME280;11115;46.038;14.612;2022-12-07T10:22:54;98274.00;;;5.00;100.00
21902;BME280;11115;46.038;14.612;2022-12-07T10:25:26;98274.88;;;4.85;100.00
21902;BME280;11115;46.038;14.612;2022-12-07T10:30:59;98256.78;;;4.90;100.00
21902;BME280;11115;46.038;14.612;2022-12-07T10:33:49;98260.53;;;5.19;100.00
21902;BME280;11115;46.038;14.612;2022-12-07T10:39:15;98244.88;;;5.25;100.00
21902;BME280;11115;46.038;14.612;2022-12-07T10:41:54;98243.59;;;4.97;100.00
21902;BME280;11115;46.038;14.612;2022-12-07T10:44:28;98252.34;;;5.09;100.00
21902;BME280;11115;46.038;14.612;2022-12-07T10:52:16;98249.84;;;5.12;100.00
21902;BME280;11115;46.038;14.612;2022-12-07T11:00:40;98234.63;;;5.51;100.00
21902;BME280;11115;46.038;14.612;2022-12-07T11:20:00;98214.97;;;6.22;100.00
21902;BME280;11115;46.038;14.612;2022-12-07T11:27:44;98201.66;;;6.39;100.00
21902;BME280;11115;46.038;14.612;2022-12-07T11:30:22;98195.84;;;6.69;100.00
21902;BME280;11115;46.038;14.612;2022-12-07T11:33:16;98190.69;;;6.87;100.00
21902;BME280;11115;46.038;14.612;2022-12-07T11:36:17;98179.13;;;7.14;100.00
21902;BME280;11115;46.038;14.612;2022-12-07T11:38:57;98175.34;;;7.28;100.00
21902;BME280;11115;46.038;14.612;2022-12-07T11:41:37;98166.09;;;7.62;100.00
21902;BME280;11115;46.038;14.612;2022-12-07T11:44:12;98169.34;;;8.02;100.00
21902;BME280;11115;46.038;14.612;2022-12-07T11:49:43;98166.72;;;7.16;100.00
21902;BME280;11115;46.038;14.612;2022-12-07T11:52:32;98169.94;;;6.99;100.00
21902;BME280;11115;46.038;14.612;2022-12-07T11:55:26;98164.66;;;7.65;100.00
21902;BME280;11115;46.038;14.612;2022-12-07T11:58:06;98164.97;;;7.44;100.00
21902;BME280;11115;46.038;14.612;2022-12-07T12:00:41;98154.69;;;7.69;100.00
21902;BME280;11115;46.038;14.612;2022-12-07T12:03:21;98150.75;;;7.94;100.00
21902;BME280;11115;46.038;14.612;2022-12-07T12:05:51;98149.75;;;8.03;100.00
21902;BME280;11115;46.038;14.612;2022-12-07T12:08:45;98140.88;;;7.74;100.00
21902;BME280;11115;46.038;14.612;2022-12-07T12:22:45;98125.09;;;7.42;100.00
21902;BME280;11115;46.038;14.612;2022-12-07T12:25:39;98129.25;;;7.77;100.00
21902;BME280;11115;46.038;14.612;2022-12-07T12:33:56;98124.28;;;8.11;100.00
21902;BME280;11115;46.038;14.612;2022-12-07T12:46:49;98117.25;;;7.68;100.00
21902;BME280;11115;46.038;14.612;2022-12-07T12:52:27;98118.16;;;7.44;100.00
21902;BME280;11115;46.038;14.612;2022-12-07T12:55:11;98115.41;;;7.63;100.00
21902;BME280;11115;46.038;14.612;2022-12-07T12:57:39;98117.31;;;8.00;100.00
21902;BME280;11115;46.038;14.612;2022-12-07T13:00:22;98116.56;;;8.27;100.00
21902;BME280;11115;46.038;14.612;2022-12-07T13:02:55;98113.22;;;7.98;100.00
21902;BME280;11115;46.038;14.612;2022-12-07T13:05:27;98115.31;;;7.68;100.00
21902;BME280;11115;46.038;14.612;2022-12-07T13:08:01;98110.59;;;7.36;100.00
21902;BME280;11115;46.038;14.612;2022-12-07T13:10:39;98095.94;;;7.22;100.00
21902;BME280;11115;46.038;14.612;2022-12-07T13:15:49;98112.00;;;7.34;100.00
21902;BME280;11115;46.038;14.612;2022-12-07T13:26:19;98115.41;;;7.25;100.00
21902;BME280;11115;46.038;14.612;2022-12-07T13:28:54;98112.13;;;7.23;100.00
21902;BME280;11115;46.038;14.612;2022-12-07T13:31:44;98118.50;;;7.00;100.00
21902;BME280;11115;46.038;14.612;2022-12-07T13:34:34;98117.09;;;7.03;100.00
21902;BME280;11115;46.038;14.612;2022-12-07T13:37:14;98117.72;;;7.18;100.00
21902;BME280;11115;46.038;14.612;2022-12-07T13:39:48;98121.19;;;7.05;100.00
21902;BME280;11115;46.038;14.612;2022-12-07T13:42:30;98107.69;;;6.85;100.00
21902;BME280;11115;46.038;14.612;2022-12-07T13:44:59;98113.41;;;6.88;100.00
21902;BME280;11115;46.038;14.612;2022-12-07T13:47:44;98121.34;;;6.95;100.00
21902;BME280;11115;46.038;14.612;2022-12-07T13:50:27;98119.16;;;6.92;100.00
21902;BME280;11115;46.038;14.612;2022-12-07T13:52:57;98118.75;;;6.80;100.00
21902;BME280;11115;46.038;14.612;2022-12-07T13:55:26;98119.28;;;6.82;100.00
21902;BME280;11115;46.038;14.612;2022-12-07T13:57:55;98105.47;;;6.63;100.00
21902;BME280;11115;46.038;14.612;2022-12-07T14:00:28;98121.44;;;6.85;100.00
21902;BME280;11115;46.038;14.612;2022-12-07T14:03:01;98118.41;;;6.86;100.00
21902;BME280;11115;46.038;14.612;2022-12-07T14:05:32;98122.56;;;6.84;100.00
21902;BME280;11115;46.038;14.612;2022-12-07T14:08:06;98122.66;;;6.74;100.00
21902;BME280;11115;46.038;14.612;2022-12-07T14:16:02;98127.63;;;6.72;100.00
21902;BME280;11115;46.038;14.612;2022-12-07T14:18:39;98131.28;;;6.67;100.00
21902;BME280;11115;46.038;14.612;2022-12-07T14:23:38;98129.34;;;6.67;100.00
21902;BME280;11115;46.038;14.612;2022-12-07T14:26:11;98128.28;;;6.63;100.00
21902;BME280;11115;46.038;14.612;2022-12-07T14:28:41;98137.13;;;6.60;100.00
21902;BME280;11115;46.038;14.612;2022-12-07T14:31:17;98135.78;;;6.58;100.00
21902;BME280;11115;46.038;14.612;2022-12-07T14:33:59;98147.06;;;6.56;100.00
21902;BME280;11115;46.038;14.612;2022-12-07T14:36:27;98143.75;;;6.54;100.00
21902;BME280;11115;46.038;14.612;2022-12-07T14:38:54;98143.25;;;6.52;100.00
21902;BME280;11115;46.038;14.612;2022-12-07T14:41:24;98158.69;;;6.48;100.00
21902;BME280;11115;46.038;14.612;2022-12-07T14:44:11;98150.44;;;6.48;100.00
21902;BME280;11115;46.038;14.612;2022-12-07T14:46:59;98160.97;;;6.41;100.00
21902;BME280;11115;46.038;14.612;2022-12-07T14:49:47;98166.34;;;6.51;100.00
21902;BME280;11115;46.038;14.612;2022-12-07T14:52:18;98164.94;;;6.54;100.00
21902;BME280;11115;46.038;14.612;2022-12-07T14:55:14;98168.91;;;6.43;100.00
21902;BME280;11115;46.038;14.612;2022-12-07T14:57:42;98169.97;;;6.47;100.00
21902;BME280;11115;46.038;14.612;2022-12-07T15:00:14;98172.41;;;6.48;100.00
21902;BME280;11115;46.038;14.612;2022-12-07T15:02:43;98171.25;;;6.54;100.00
21902;BME280;11115;46.038;14.612;2022-12-07T15:05:11;98153.31;;;6.33;100.00
21902;BME280;11115;46.038;14.612;2022-12-07T15:07:42;98169.56;;;6.29;100.00
21902;BME280;11115;46.038;14.612;2022-12-07T15:10:20;98170.38;;;6.30;100.00
21902;BME280;11115;46.038;14.612;2022-12-07T15:12:50;98165.41;;;6.32;100.00
21902;BME280;11115;46.038;14.612;2022-12-07T15:15:18;98173.47;;;6.23;100.00
21902;BME280;11115;46.038;14.612;2022-12-07T15:17:46;98174.31;;;6.24;100.00
21902;BME280;11115;46.038;14.612;2022-12-07T15:20:15;98173.66;;;6.32;100.00